Time;durP1;ratioP1;P1;durP2;ratioP2;P2;SDS_P1;SDS_P2;PMS_P1;PMS_P2;Temp;Humidity;BMP_temperature;BMP_pressure;BME280_temperature;BME280_humidity;BME280_pressure;Samples;Min_cycle;Max_cycle;Signal;HPM_P1;HPM_P2
2023/09/01 00:00:18;;;;;;;8.13;5.30;;;;;;;;;;5051515;28;20053;-77
2023/09/01 00:02:44;;;;;;;8.15;5.90;;;;;;;;;;5051430;28;20021;-77
2023/09/01 00:05:11;;;;;;;8.15;6.03;;;;;;;;;;5051534;28;20613;-77
2023/09/01 00:07:37;;;;;;;7.85;6.45;;;;;;;;;;5051534;28;20027;-77
2023/09/01 00:10:04;;;;;;;9.77;6.13;;;;;;;;;;5051111;28;20092;-77
2023/09/01 00:12:31;;;;;;;9.20;6.00;;;;;;;;;;5051653;28;20017;-77
2023/09/01 00:14:57;;;;;;;8.52;5.50;;;;;;;;;;5051097;28;20047;-77
2023/09/01 00:17:23;;;;;;;8.30;4.93;;;;;;;;;;5050423;28;20044;-77
2023/09/01 00:19:49;;;;;;;7.22;5.35;;;;;;;;;;5050943;28;20441;-77
2023/09/01 00:22:15;;;;;;;7.28;5.32;;;;;;;;;;5070535;28;20033;-77
2023/09/01 00:24:42;;;;;;;9.35;6.55;;;;;;;;;;5061897;28;20134;-77
2023/09/01 00:27:07;;;;;;;9.30;7.07;;;;;;;;;;5072487;28;20379;-77
2023/09/01 00:29:34;;;;;;;9.43;6.78;;;;;;;;;;5074682;28;20025;-77
2023/09/01 00:32:01;;;;;;;7.80;6.40;;;;;;;;;;5075116;28;20439;-77
2023/09/01 00:34:32;;;;;;;8.10;7.07;;;;;;;;;;5074988;28;20029;-77
2023/09/01 00:36:58;;;;;;;7.78;5.38;;;;;;;;;;5074775;28;20082;-77
2023/09/01 00:39:24;;;;;;;8.48;5.50;;;;;;;;;;5074500;28;20056;-77
2023/09/01 00:41:50;;;;;;;9.23;4.93;;;;;;;;;;5047339;28;20052;-77
2023/09/01 00:44:16;;;;;;;6.95;4.13;;;;;;;;;;5074278;28;20047;-77
2023/09/01 00:46:43;;;;;;;6.72;4.60;;;;;;;;;;5064735;28;20028;-77
2023/09/01 00:49:10;;;;;;;10.02;4.85;;;;;;;;;;5058220;28;20043;-77
2023/09/01 00:51:36;;;;;;;7.05;5.00;;;;;;;;;;5074460;28;20021;-77
2023/09/01 00:54:03;;;;;;;7.82;4.32;;;;;;;;;;5074683;28;20025;-77
2023/09/01 00:56:29;;;;;;;7.35;4.85;;;;;;;;;;5055931;28;20108;-77
2023/09/01 00:58:55;;;;;;;8.23;4.68;;;;;;;;;;5074088;28;20042;-77
2023/09/01 01:01:21;;;;;;;7.18;4.65;;;;;;;;;;5068171;28;20112;-77
2023/09/01 01:03:49;;;;;;;6.43;4.55;;;;;;;;;;5054113;28;20040;-77
2023/09/01 01:06:22;;;;;;;7.60;4.47;;;;;;;;;;5053975;28;20017;-77
2023/09/01 01:09:00;;;;;;;5.60;3.83;;;;;;;;;;5053930;28;20491;-77
2023/09/01 01:11:45;;;;;;;6.95;5.25;;;;;;;;;;5053758;28;20107;-76
2023/09/01 01:14:15;;;;;;;6.32;5.00;;;;;;;;;;5053592;28;20472;-77
2023/09/01 01:16:41;;;;;;;7.13;5.30;;;;;;;;;;5053369;28;20580;-77
2023/09/01 01:19:16;;;;;;;6.22;4.90;;;;;;;;;;5053918;28;20086;-77
2023/09/01 01:21:44;;;;;;;9.75;5.57;;;;;;;;;;5053644;28;20033;-77
2023/09/01 01:24:10;;;;;;;7.80;4.90;;;;;;;;;;5054063;28;20021;-77
2023/09/01 01:26:37;;;;;;;6.72;5.40;;;;;;;;;;5053566;28;20017;-77
2023/09/01 01:29:03;;;;;;;7.25;5.32;;;;;;;;;;5053363;28;20491;-77
2023/09/01 01:31:29;;;;;;;9.43;4.95;;;;;;;;;;5053895;28;20070;-77
2023/09/01 01:33:56;;;;;;;8.95;5.10;;;;;;;;;;5053145;28;20025;-76
2023/09/01 01:36:40;;;;;;;9.18;5.45;;;;;;;;;;5053399;28;20033;-77
2023/09/01 01:39:07;;;;;;;7.82;5.05;;;;;;;;;;5053187;28;20079;-77
2023/09/01 01:41:39;;;;;;;7.78;5.32;;;;;;;;;;5053487;28;20108;-77
2023/09/01 01:44:06;;;;;;;9.38;5.15;;;;;;;;;;5053043;28;20082;-77
2023/09/01 01:46:33;;;;;;;10.18;5.40;;;;;;;;;;5053268;28;20048;-77
2023/09/01 01:48:59;;;;;;;8.48;4.78;;;;;;;;;;5053259;28;20108;-77
2023/09/01 01:51:25;;;;;;;8.25;4.65;;;;;;;;;;5053106;28;20675;-77
2023/09/01 01:53:51;;;;;;;8.80;4.68;;;;;;;;;;5053190;28;20519;-77
2023/09/01 01:56:17;;;;;;;5.57;4.60;;;;;;;;;;5052702;28;20024;-77
2023/09/01 01:58:43;;;;;;;8.73;4.88;;;;;;;;;;5053298;28;20082;-77
2023/09/01 02:01:09;;;;;;;8.13;5.05;;;;;;;;;;5052757;28;20107;-77
2023/09/01 02:03:35;;;;;;;7.03;4.65;;;;;;;;;;5053280;28;20025;-77
2023/09/01 02:06:01;;;;;;;6.00;4.53;;;;;;;;;;5052860;28;20032;-77
2023/09/01 02:08:27;;;;;;;8.43;5.35;;;;;;;;;;5052588;28;20032;-77
2023/09/01 02:10:54;;;;;;;6.40;4.47;;;;;;;;;;5053184;28;20025;-77
2023/09/01 02:13:20;;;;;;;5.88;4.10;;;;;;;;;;5053004;28;20096;-77
2023/09/01 02:15:52;;;;;;;8.93;4.53;;;;;;;;;;5052428;28;20100;-77
2023/09/01 02:18:19;;;;;;;8.82;5.05;;;;;;;;;;5052457;28;20037;-77
2023/09/01 02:20:45;;;;;;;7.00;4.75;;;;;;;;;;5052824;28;20479;-77
2023/09/01 02:23:13;;;;;;;8.90;4.38;;;;;;;;;;5052339;28;20404;-77
2023/09/01 02:25:39;;;;;;;7.22;4.10;;;;;;;;;;5057526;28;20031;-77
2023/09/01 02:28:05;;;;;;;8.02;4.78;;;;;;;;;;5048908;28;20030;-77
2023/09/01 02:30:31;;;;;;;6.63;4.40;;;;;;;;;;5032478;28;20037;-77
2023/09/01 02:32:57;;;;;;;7.60;4.45;;;;;;;;;;5056135;28;20043;-77
2023/09/01 02:35:25;;;;;;;7.35;4.63;;;;;;;;;;5054135;28;20416;-77
2023/09/01 02:37:51;;;;;;;8.38;5.05;;;;;;;;;;5052433;28;20496;-77
2023/09/01 02:40:17;;;;;;;8.95;5.38;;;;;;;;;;5057274;28;20024;-77
2023/09/01 02:42:43;;;;;;;7.70;4.93;;;;;;;;;;5072068;28;20100;-77
2023/09/01 02:45:13;;;;;;;8.05;5.15;;;;;;;;;;5071499;28;20025;-77
2023/09/01 02:47:40;;;;;;;11.75;5.88;;;;;;;;;;5071971;28;20402;-77
2023/09/01 02:50:07;;;;;;;9.40;5.30;;;;;;;;;;5060463;28;20045;-77
2023/09/01 02:52:33;;;;;;;12.48;6.20;;;;;;;;;;5031972;28;20044;-76
2023/09/01 02:55:00;;;;;;;11.65;6.20;;;;;;;;;;5052399;28;20104;-77
2023/09/01 02:57:26;;;;;;;12.15;5.65;;;;;;;;;;5054071;28;20033;-77
2023/09/01 02:59:54;;;;;;;9.73;5.22;;;;;;;;;;5048464;28;20033;-77
2023/09/01 03:02:21;;;;;;;8.15;4.43;;;;;;;;;;5031826;28;20064;-77
2023/09/01 03:04:52;;;;;;;7.18;3.50;;;;;;;;;;5048777;28;20029;-77
2023/09/01 03:07:18;;;;;;;5.28;3.40;;;;;;;;;;5051959;28;20021;-76
2023/09/01 03:09:44;;;;;;;5.28;3.47;;;;;;;;;;5051574;28;20039;-77
2023/09/01 03:12:10;;;;;;;5.68;3.53;;;;;;;;;;5044030;28;20089;-77
2023/09/01 03:14:36;;;;;;;4.45;3.20;;;;;;;;;;5032024;28;20079;-76
2023/09/01 03:17:04;;;;;;;4.50;2.88;;;;;;;;;;5031231;28;20045;-77
2023/09/01 03:19:31;;;;;;;7.72;3.00;;;;;;;;;;5033317;28;20028;-77
2023/09/01 03:21:57;;;;;;;5.82;3.00;;;;;;;;;;5051701;28;20088;-77
2023/09/01 03:24:23;;;;;;;3.55;3.00;;;;;;;;;;5051972;28;20120;-77
2023/09/01 03:26:49;;;;;;;5.38;2.95;;;;;;;;;;5051727;28;20483;-77
2023/09/01 03:29:15;;;;;;;4.28;3.75;;;;;;;;;;5051638;28;20032;-77
2023/09/01 03:31:42;;;;;;;5.82;3.90;;;;;;;;;;5050589;28;20072;-77
2023/09/01 03:34:09;;;;;;;6.35;4.50;;;;;;;;;;5051464;28;20017;-77
2023/09/01 03:36:36;;;;;;;7.25;4.72;;;;;;;;;;5051504;28;20017;-77
2023/09/01 03:39:02;;;;;;;6.10;3.92;;;;;;;;;;5051399;28;20029;-77
2023/09/01 03:41:28;;;;;;;7.00;4.68;;;;;;;;;;5050306;28;20108;-77
2023/09/01 03:43:54;;;;;;;8.55;5.15;;;;;;;;;;5039754;28;20226;-77
2023/09/01 03:46:20;;;;;;;9.20;5.68;;;;;;;;;;5051332;28;20025;-77
2023/09/01 03:48:46;;;;;;;10.05;5.10;;;;;;;;;;5051369;28;20399;-77
2023/09/01 03:51:14;;;;;;;8.60;5.50;;;;;;;;;;5051269;28;20036;-77
2023/09/01 03:53:41;;;;;;;8.63;6.18;;;;;;;;;;5051400;28;20113;-77
2023/09/01 03:56:14;;;;;;;9.23;5.70;;;;;;;;;;5051484;28;20108;-77
2023/09/01 03:58:40;;;;;;;12.07;6.32;;;;;;;;;;5055059;28;20028;-77
2023/09/01 04:01:11;;;;;;;11.20;6.72;;;;;;;;;;5055163;28;20031;-77
2023/09/01 04:03:39;;;;;;;12.15;7.18;;;;;;;;;;5055385;28;20348;-78
2023/09/01 04:06:06;;;;;;;10.70;6.53;;;;;;;;;;5055066;28;20021;-77
2023/09/01 04:08:32;;;;;;;11.52;6.97;;;;;;;;;;5055456;28;20029;-77
2023/09/01 04:10:58;;;;;;;11.30;7.32;;;;;;;;;;5055280;28;20021;-77
2023/09/01 04:13:24;;;;;;;12.07;7.40;;;;;;;;;;5055096;28;20031;-77
2023/09/01 04:15:51;;;;;;;11.65;7.38;;;;;;;;;;5054746;28;20406;-77
2023/09/01 04:18:17;;;;;;;9.75;7.30;;;;;;;;;;5054944;28;20459;-77
2023/09/01 04:20:47;;;;;;;11.68;7.00;;;;;;;;;;5057853;28;20020;-77
2023/09/01 04:23:13;;;;;;;11.98;7.20;;;;;;;;;;5074625;28;20078;-77
2023/09/01 04:25:39;;;;;;;10.18;7.05;;;;;;;;;;5074601;28;20483;-77
2023/09/01 04:28:05;;;;;;;11.48;6.95;;;;;;;;;;5074573;28;20033;-77
2023/09/01 04:30:31;;;;;;;11.65;7.22;;;;;;;;;;5070690;28;20047;-77
2023/09/01 04:32:57;;;;;;;12.63;6.95;;;;;;;;;;5054171;28;20075;-77
2023/09/01 04:35:23;;;;;;;13.13;7.03;;;;;;;;;;5054583;28;20572;-76
2023/09/01 04:37:49;;;;;;;10.57;6.65;;;;;;;;;;5054395;28;20037;-77
2023/09/01 04:40:15;;;;;;;11.88;6.45;;;;;;;;;;5054212;28;20032;-77
2023/09/01 04:42:41;;;;;;;9.40;6.72;;;;;;;;;;5053586;28;20515;-77
2023/09/01 04:45:07;;;;;;;10.63;6.18;;;;;;;;;;5054173;28;20048;-78
2023/09/01 04:47:33;;;;;;;11.35;6.05;;;;;;;;;;5054261;28;20021;-77
2023/09/01 04:49:59;;;;;;;9.32;5.65;;;;;;;;;;5054240;28;20636;-77
2023/09/01 04:52:25;;;;;;;11.73;6.03;;;;;;;;;;5054407;28;20658;-77
2023/09/01 04:54:51;;;;;;;8.70;5.60;;;;;;;;;;5053935;28;20519;-77
2023/09/01 04:57:17;;;;;;;7.80;5.88;;;;;;;;;;5053872;28;20095;-76
2023/09/01 04:59:45;;;;;;;11.77;5.60;;;;;;;;;;5053877;28;20021;-77
2023/09/01 05:02:11;;;;;;;6.82;5.35;;;;;;;;;;5054922;28;20021;-77
2023/09/01 05:04:37;;;;;;;8.57;5.82;;;;;;;;;;5053832;28;20368;-77
2023/09/01 05:07:03;;;;;;;7.90;5.55;;;;;;;;;;5053583;28;20028;-77
2023/09/01 05:09:29;;;;;;;7.40;5.85;;;;;;;;;;5052919;28;20051;-76
2023/09/01 05:11:55;;;;;;;11.43;6.13;;;;;;;;;;5036102;28;20465;-76
2023/09/01 05:14:21;;;;;;;8.50;5.85;;;;;;;;;;5053653;28;20028;-77
2023/09/01 05:16:47;;;;;;;10.85;6.15;;;;;;;;;;5035206;28;20052;-77
2023/09/01 05:19:14;;;;;;;12.15;6.75;;;;;;;;;;5035705;28;20126;-77
2023/09/01 05:21:40;;;;;;;12.40;6.72;;;;;;;;;;5033702;28;20025;-77
2023/09/01 05:24:06;;;;;;;9.55;5.97;;;;;;;;;;5042217;28;20420;-77
2023/09/01 05:26:32;;;;;;;11.23;6.82;;;;;;;;;;5045197;28;20029;-77
2023/09/01 05:28:58;;;;;;;9.23;5.57;;;;;;;;;;5053801;28;20112;-77
2023/09/01 05:31:25;;;;;;;10.25;5.28;;;;;;;;;;5053373;28;20027;-77
2023/09/01 05:33:52;;;;;;;9.73;5.35;;;;;;;;;;5035281;28;20528;-76
2023/09/01 05:36:18;;;;;;;6.70;5.03;;;;;;;;;;5053548;28;20068;-77
2023/09/01 05:38:46;;;;;;;7.07;5.28;;;;;;;;;;5053164;28;20060;-77
2023/09/01 05:41:14;;;;;;;7.57;4.93;;;;;;;;;;5053324;28;20033;-78
2023/09/01 05:43:41;;;;;;;5.43;4.60;;;;;;;;;;5053315;28;20013;-77
2023/09/01 05:46:07;;;;;;;8.80;5.22;;;;;;;;;;5053130;28;20120;-77
2023/09/01 05:48:34;;;;;;;7.55;4.75;;;;;;;;;;5053116;28;20132;-78
2023/09/01 05:51:01;;;;;;;6.68;4.68;;;;;;;;;;5053460;28;20083;-77
2023/09/01 05:53:27;;;;;;;7.40;5.15;;;;;;;;;;5053102;28;20040;-77
2023/09/01 05:55:53;;;;;;;9.27;5.13;;;;;;;;;;5054062;28;20017;-77
2023/09/01 05:58:19;;;;;;;7.70;4.68;;;;;;;;;;5056930;28;20106;-77
2023/09/01 06:00:45;;;;;;;8.65;5.05;;;;;;;;;;5052675;28;20067;-77
2023/09/01 06:03:11;;;;;;;9.02;5.32;;;;;;;;;;5051499;28;20025;-77
2023/09/01 06:05:38;;;;;;;7.28;4.70;;;;;;;;;;5052665;28;20025;-77
2023/09/01 06:08:04;;;;;;;8.63;4.60;;;;;;;;;;5052796;28;20032;-77
2023/09/01 06:10:30;;;;;;;8.25;5.30;;;;;;;;;;5053009;28;20490;-77
2023/09/01 06:12:56;;;;;;;7.72;4.80;;;;;;;;;;5052616;28;20393;-77
2023/09/01 06:15:22;;;;;;;7.68;4.43;;;;;;;;;;5052478;28;20039;-77
2023/09/01 06:17:48;;;;;;;8.20;4.55;;;;;;;;;;5051745;28;20136;-76
2023/09/01 06:20:14;;;;;;;5.85;4.43;;;;;;;;;;5051236;28;20109;-77
2023/09/01 06:22:40;;;;;;;9.45;4.25;;;;;;;;;;5070012;28;20027;-77
2023/09/01 06:25:07;;;;;;;8.05;4.72;;;;;;;;;;5071994;28;20112;-77
2023/09/01 06:27:40;;;;;;;8.00;4.60;;;;;;;;;;5070879;28;20078;-77
2023/09/01 06:30:06;;;;;;;5.50;4.22;;;;;;;;;;5043204;28;20087;-77
2023/09/01 06:32:33;;;;;;;6.53;4.30;;;;;;;;;;5032091;28;20028;-77
2023/09/01 06:34:59;;;;;;;10.55;5.20;;;;;;;;;;5031960;28;20022;-77
2023/09/01 06:37:25;;;;;;;7.28;4.78;;;;;;;;;;5031960;28;20065;-76
2023/09/01 06:39:51;;;;;;;6.40;4.32;;;;;;;;;;5050842;28;20032;-77
2023/09/01 06:42:17;;;;;;;9.40;4.70;;;;;;;;;;5051906;28;20021;-77
2023/09/01 06:44:43;;;;;;;6.70;4.95;;;;;;;;;;5051644;28;20103;-76
2023/09/01 06:47:10;;;;;;;8.38;5.05;;;;;;;;;;5051609;28;20668;-77
2023/09/01 06:49:36;;;;;;;11.23;4.82;;;;;;;;;;5051925;28;20021;-77
2023/09/01 06:52:03;;;;;;;8.52;4.72;;;;;;;;;;5051812;28;20029;-77
2023/09/01 06:54:29;;;;;;;7.00;4.18;;;;;;;;;;5034352;28;20029;-78
2023/09/01 06:56:55;;;;;;;7.65;3.88;;;;;;;;;;5036014;28;20633;-78
2023/09/01 06:59:21;;;;;;;8.27;3.90;;;;;;;;;;5054321;28;20064;-78
2023/09/01 07:01:47;;;;;;;5.70;3.45;;;;;;;;;;5055068;28;20100;-79
2023/09/01 07:04:13;;;;;;;7.53;3.45;;;;;;;;;;5043460;28;20018;-78
2023/09/01 07:06:39;;;;;;;6.70;3.40;;;;;;;;;;5031896;28;20041;-78
2023/09/01 07:09:05;;;;;;;4.50;2.92;;;;;;;;;;5031874;28;20040;-78
2023/09/01 07:11:31;;;;;;;5.45;3.03;;;;;;;;;;5031938;28;20648;-78
2023/09/01 07:13:57;;;;;;;5.05;3.40;;;;;;;;;;5032762;28;20156;-78
2023/09/01 07:16:24;;;;;;;6.18;3.50;;;;;;;;;;5051238;28;20045;-78
2023/09/01 07:18:50;;;;;;;5.10;3.22;;;;;;;;;;5051611;28;20037;-78
2023/09/01 07:21:16;;;;;;;7.20;3.63;;;;;;;;;;5051579;28;20017;-78
2023/09/01 07:23:42;;;;;;;6.13;3.40;;;;;;;;;;5051200;28;20087;-77
2023/09/01 07:26:08;;;;;;;6.88;3.70;;;;;;;;;;5052017;28;20024;-78
2023/09/01 07:28:34;;;;;;;5.10;3.45;;;;;;;;;;5051949;28;20036;-78
2023/09/01 07:31:00;;;;;;;4.45;3.42;;;;;;;;;;5051373;28;20029;-78
2023/09/01 07:33:28;;;;;;;5.25;3.70;;;;;;;;;;5052128;28;20021;-78
2023/09/01 07:35:54;;;;;;;5.40;3.72;;;;;;;;;;5052119;28;20021;-78
2023/09/01 07:38:23;;;;;;;4.45;3.10;;;;;;;;;;5051803;28;20043;-78
2023/09/01 07:40:49;;;;;;;5.18;3.40;;;;;;;;;;5034298;28;20099;-78
2023/09/01 07:43:17;;;;;;;6.13;3.40;;;;;;;;;;5051568;28;20445;-78
2023/09/01 07:45:50;;;;;;;6.65;3.42;;;;;;;;;;5052235;28;20048;-78
2023/09/01 07:48:16;;;;;;;8.02;3.33;;;;;;;;;;5051286;28;20021;-78
2023/09/01 07:50:42;;;;;;;4.90;2.90;;;;;;;;;;5051117;28;20036;-78
2023/09/01 07:53:08;;;;;;;4.50;2.90;;;;;;;;;;5051357;28;20075;-78
2023/09/01 07:55:34;;;;;;;5.13;2.95;;;;;;;;;;5051182;28;20029;-78
2023/09/01 07:58:00;;;;;;;5.28;3.55;;;;;;;;;;5065251;28;20116;-78
2023/09/01 08:00:26;;;;;;;6.35;2.97;;;;;;;;;;5051426;28;20129;-78
2023/09/01 08:02:52;;;;;;;5.28;3.10;;;;;;;;;;5051484;28;20048;-78
2023/09/01 08:05:18;;;;;;;4.10;3.25;;;;;;;;;;5051255;28;20448;-78
2023/09/01 08:07:46;;;;;;;5.22;3.30;;;;;;;;;;5051097;28;20028;-78
2023/09/01 08:10:12;;;;;;;9.05;3.58;;;;;;;;;;5052783;28;20021;-78
2023/09/01 08:12:38;;;;;;;5.97;3.22;;;;;;;;;;5051500;28;20360;-78
2023/09/01 08:15:04;;;;;;;5.00;3.55;;;;;;;;;;5051976;28;20021;-78
2023/09/01 08:17:30;;;;;;;6.38;3.72;;;;;;;;;;5051369;28;20119;-78
2023/09/01 08:19:57;;;;;;;4.88;3.33;;;;;;;;;;5051310;28;20429;-78
2023/09/01 08:22:23;;;;;;;6.00;3.63;;;;;;;;;;5051768;28;20107;-78
2023/09/01 08:24:49;;;;;;;4.45;2.90;;;;;;;;;;5050885;28;20061;-78
2023/09/01 08:27:15;;;;;;;4.53;3.10;;;;;;;;;;5050948;28;20029;-78
2023/09/01 08:29:41;;;;;;;5.53;2.70;;;;;;;;;;5050944;28;20032;-78
2023/09/01 08:32:07;;;;;;;7.88;3.45;;;;;;;;;;5051385;28;20021;-77
2023/09/01 08:34:33;;;;;;;5.65;3.25;;;;;;;;;;5050771;28;20110;-77
2023/09/01 08:36:59;;;;;;;9.63;3.25;;;;;;;;;;5050338;28;20056;-77
2023/09/01 08:39:25;;;;;;;6.93;2.70;;;;;;;;;;5050670;28;20112;-77
2023/09/01 08:41:53;;;;;;;5.30;2.50;;;;;;;;;;5050475;28;20585;-77
2023/09/01 08:44:23;;;;;;;4.57;2.25;;;;;;;;;;5065470;28;20555;-77
2023/09/01 08:46:50;;;;;;;4.25;2.58;;;;;;;;;;5074518;28;20020;-77
2023/09/01 08:49:16;;;;;;;4.47;2.88;;;;;;;;;;5073937;28;20032;-77
2023/09/01 08:51:43;;;;;;;7.63;3.35;;;;;;;;;;5074232;28;20066;-77
2023/09/01 08:54:11;;;;;;;4.07;2.80;;;;;;;;;;5071918;28;20099;-77
2023/09/01 08:56:37;;;;;;;4.32;2.65;;;;;;;;;;5034442;28;20057;-77
2023/09/01 08:59:03;;;;;;;3.00;2.58;;;;;;;;;;5034210;28;20361;-77
2023/09/01 09:01:30;;;;;;;4.13;2.72;;;;;;;;;;5041396;28;20024;-78
2023/09/01 09:03:57;;;;;;;5.22;2.40;;;;;;;;;;5054694;28;20483;-78
2023/09/01 09:06:34;;;;;;;5.88;1.70;;;;;;;;;;5061421;28;20453;-78
2023/09/01 09:09:06;;;;;;;4.43;1.92;;;;;;;;;;5075198;28;20036;-78
2023/09/01 09:11:32;;;;;;;4.55;1.77;;;;;;;;;;5073775;28;20024;-77
2023/09/01 09:13:58;;;;;;;5.45;1.60;;;;;;;;;;5059475;28;20044;-77
2023/09/01 09:16:24;;;;;;;4.57;1.98;;;;;;;;;;5053251;28;20052;-78
2023/09/01 09:18:50;;;;;;;2.10;1.77;;;;;;;;;;5053702;28;20083;-77
2023/09/01 09:21:27;;;;;;;3.60;1.90;;;;;;;;;;5053316;28;20029;-77
2023/09/01 09:23:54;;;;;;;2.75;1.83;;;;;;;;;;5055862;28;20116;-77
2023/09/01 09:26:27;;;;;;;3.88;1.90;;;;;;;;;;5064223;28;20033;-77
2023/09/01 09:28:53;;;;;;;3.65;2.30;;;;;;;;;;5053361;28;20452;-77
2023/09/01 09:31:28;;;;;;;4.35;1.83;;;;;;;;;;5053101;28;20071;-77
2023/09/01 09:33:54;;;;;;;4.95;2.28;;;;;;;;;;5053330;28;20029;-78
2023/09/01 09:36:31;;;;;;;5.93;2.17;;;;;;;;;;5053209;28;20765;-77
2023/09/01 09:38:57;;;;;;;3.20;2.45;;;;;;;;;;5052781;28;20120;-77
2023/09/01 09:41:23;;;;;;;3.50;1.60;;;;;;;;;;5053088;28;20067;-77
2023/09/01 09:43:50;;;;;;;5.63;2.00;;;;;;;;;;5052970;28;20060;-77
2023/09/01 09:46:17;;;;;;;4.40;1.80;;;;;;;;;;5065869;28;20110;-77
2023/09/01 09:48:43;;;;;;;5.47;2.53;;;;;;;;;;5072740;28;20025;-78
2023/09/01 09:51:10;;;;;;;5.80;2.33;;;;;;;;;;5072750;28;20023;-78
2023/09/01 09:53:37;;;;;;;5.70;2.30;;;;;;;;;;5072659;28;20023;-77
2023/09/01 09:56:22;;;;;;;3.85;2.00;;;;;;;;;;5072313;28;20367;-78
2023/09/01 09:58:49;;;;;;;2.67;1.85;;;;;;;;;;5072685;28;20032;-78
2023/09/01 10:01:19;;;;;;;5.25;2.13;;;;;;;;;;5072815;28;20104;-77
2023/09/01 10:03:47;;;;;;;4.30;1.85;;;;;;;;;;5061773;28;20019;-77
2023/09/01 10:06:14;;;;;;;6.28;1.83;;;;;;;;;;5053099;28;20021;-78
2023/09/01 10:08:43;;;;;;;4.50;2.10;;;;;;;;;;5052669;28;20072;-78
2023/09/01 10:11:09;;;;;;;4.53;2.03;;;;;;;;;;5053162;28;20029;-78
2023/09/01 10:13:36;;;;;;;4.30;1.95;;;;;;;;;;5052534;28;20070;-78
2023/09/01 10:16:03;;;;;;;6.55;1.88;;;;;;;;;;5052781;28;20666;-78
2023/09/01 10:18:29;;;;;;;3.28;1.95;;;;;;;;;;5051993;28;20045;-78
2023/09/01 10:20:56;;;;;;;3.13;1.88;;;;;;;;;;5052621;28;20103;-78
2023/09/01 10:23:22;;;;;;;3.25;2.05;;;;;;;;;;5051649;28;20029;-78
2023/09/01 10:26:06;;;;;;;6.15;2.10;;;;;;;;;;5052120;28;20025;-78
2023/09/01 10:28:52;;;;;;;2.95;1.80;;;;;;;;;;5053437;28;20052;-78
2023/09/01 10:31:20;;;;;;;1.58;1.27;;;;;;;;;;5053800;28;20112;-78
2023/09/01 10:33:46;;;;;;;6.13;1.40;;;;;;;;;;5052589;28;20021;-78
2023/09/01 10:36:15;;;;;;;3.50;1.63;;;;;;;;;;5053103;28;20021;-78
2023/09/01 10:38:41;;;;;;;3.50;1.70;;;;;;;;;;5053802;28;20037;-79
2023/09/01 10:41:07;;;;;;;4.00;1.70;;;;;;;;;;5053525;28;20028;-78
2023/09/01 10:43:41;;;;;;;3.53;1.48;;;;;;;;;;5035761;28;20029;-78
2023/09/01 10:46:16;;;;;;;2.17;1.58;;;;;;;;;;5034244;28;20014;-79
2023/09/01 10:48:58;;;;;;;2.88;1.55;;;;;;;;;;5033854;28;20032;-79
2023/09/01 10:51:28;;;;;;;3.60;1.58;;;;;;;;;;5034642;28;20029;-79
2023/09/01 10:53:55;;;;;;;;;;;;;;;;;;5035419;28;20112;-79
2023/09/01 10:56:21;;;;;;;2.65;1.73;;;;;;;;;;5035288;28;19905;-79
2023/09/01 10:58:52;;;;;;;3.95;1.80;;;;;;;;;;5034120;28;20043;-79
2023/09/01 11:01:24;;;;;;;5.10;2.40;;;;;;;;;;5040338;28;20021;-80
2023/09/01 11:03:50;;;;;;;6.65;2.47;;;;;;;;;;5067100;28;20420;-80
2023/09/01 11:06:16;;;;;;;6.20;2.67;;;;;;;;;;5039186;28;20032;-79
2023/09/01 11:08:57;;;;;;;5.47;2.70;;;;;;;;;;5045088;28;20029;-80
2023/09/01 11:11:23;;;;;;;3.67;2.40;;;;;;;;;;5032000;28;20071;-79
2023/09/01 11:14:09;;;;;;;4.57;2.70;;;;;;;;;;5032536;28;20036;-78
2023/09/01 11:16:35;;;;;;;3.75;2.35;;;;;;;;;;5037253;28;20049;-79
2023/09/01 11:19:02;;;;;;;6.07;2.90;;;;;;;;;;5038978;28;20037;-80
2023/09/01 11:21:28;;;;;;;5.32;3.25;;;;;;;;;;5057763;28;20017;-80
2023/09/01 11:23:58;;;;;;;4.63;3.03;;;;;;;;;;5056488;28;20383;-80
2023/09/01 11:26:24;;;;;;;4.95;3.22;;;;;;;;;;5066959;28;20016;-80
2023/09/01 11:28:50;;;;;;;8.02;2.95;;;;;;;;;;5073345;28;20497;-80
2023/09/01 11:31:16;;;;;;;4.75;3.30;;;;;;;;;;5056222;28;20068;-80
2023/09/01 11:33:50;;;;;;;5.03;2.80;;;;;;;;;;5056415;28;20020;-80
2023/09/01 11:36:17;;;;;;;3.53;2.15;;;;;;;;;;5054625;28;20472;-78
2023/09/01 11:38:44;;;;;;;4.78;2.75;;;;;;;;;;5057016;28;20032;-79
2023/09/01 11:41:18;;;;;;;5.40;2.72;;;;;;;;;;5066138;28;20014;-80
2023/09/01 11:43:44;;;;;;;5.07;3.00;;;;;;;;;;5060067;28;20035;-79
2023/09/01 11:46:10;;;;;;;5.43;2.97;;;;;;;;;;5075414;28;20471;-79
2023/09/01 11:48:37;;;;;;;6.75;3.00;;;;;;;;;;5056379;28;20029;-79
2023/09/01 11:51:04;;;;;;;7.93;2.97;;;;;;;;;;5041765;28;20440;-79
2023/09/01 11:53:32;;;;;;;4.90;2.88;;;;;;;;;;5078282;28;20025;-79
2023/09/01 11:55:59;;;;;;;7.10;3.08;;;;;;;;;;5062224;28;20041;-80
2023/09/01 11:58:34;;;;;;;5.35;3.45;;;;;;;;;;5052302;28;20025;-78
2023/09/01 12:01:14;;;;;;;5.13;3.38;;;;;;;;;;5052224;28;20041;-78
2023/09/01 12:03:53;;;;;;;6.45;3.30;;;;;;;;;;5052437;28;20372;-78
2023/09/01 12:06:20;;;;;;;7.13;3.33;;;;;;;;;;5051831;28;20056;-78
2023/09/01 12:08:46;;;;;;;5.38;2.90;;;;;;;;;;5064262;28;20021;-78
2023/09/01 12:11:13;;;;;;;6.60;3.28;;;;;;;;;;5072268;28;20020;-78
2023/09/01 12:13:39;;;;;;;5.13;3.25;;;;;;;;;;5073538;28;20025;-78
2023/09/01 12:16:05;;;;;;;5.95;3.08;;;;;;;;;;5054302;28;20100;-79
2023/09/01 12:18:38;;;;;;;6.90;3.30;;;;;;;;;;5066993;28;20045;-78
2023/09/01 12:21:11;;;;;;;5.30;3.22;;;;;;;;;;5037368;28;20025;-78
2023/09/01 12:23:40;;;;;;;4.75;2.88;;;;;;;;;;5065003;28;20121;-78
2023/09/01 12:26:06;;;;;;;5.68;3.10;;;;;;;;;;5065771;28;20013;-78
2023/09/01 12:28:34;;;;;;;5.05;3.10;;;;;;;;;;5077927;28;20028;-78
2023/09/01 12:31:00;;;;;;;7.30;3.30;;;;;;;;;;5074997;28;20082;-78
2023/09/01 12:33:26;;;;;;;8.88;3.50;;;;;;;;;;5063119;28;20403;-77
2023/09/01 12:35:53;;;;;;;9.68;3.35;;;;;;;;;;5065908;28;20025;-78
2023/09/01 12:38:19;;;;;;;7.40;3.30;;;;;;;;;;5058648;28;20043;-78
2023/09/01 12:40:45;;;;;;;4.93;3.40;;;;;;;;;;5072778;28;20054;-78
2023/09/01 12:43:13;;;;;;;8.82;3.40;;;;;;;;;;5061912;28;20029;-78
2023/09/01 12:45:40;;;;;;;5.85;3.28;;;;;;;;;;5055624;28;20013;-78
2023/09/01 12:48:06;;;;;;;5.22;2.80;;;;;;;;;;5056121;28;20033;-78
2023/09/01 12:50:33;;;;;;;6.13;3.22;;;;;;;;;;5058005;28;20108;-78
2023/09/01 12:52:59;;;;;;;5.75;3.08;;;;;;;;;;5056303;28;20025;-78
2023/09/01 12:55:26;;;;;;;6.75;3.58;;;;;;;;;;5054483;28;20104;-78
2023/09/01 12:57:52;;;;;;;6.50;3.80;;;;;;;;;;5054078;28;20488;-78
2023/09/01 13:00:20;;;;;;;7.05;3.10;;;;;;;;;;5054472;28;20051;-78
2023/09/01 13:02:49;;;;;;;5.85;3.30;;;;;;;;;;5051950;28;20032;-78
2023/09/01 13:05:17;;;;;;;5.68;2.95;;;;;;;;;;5034697;28;20033;-77
2023/09/01 13:07:45;;;;;;;7.63;3.50;;;;;;;;;;5043925;28;20048;-78
2023/09/01 13:10:18;;;;;;;8.27;3.17;;;;;;;;;;5036899;28;20018;-78
2023/09/01 13:12:44;;;;;;;7.10;3.20;;;;;;;;;;5035024;28;20550;-78
2023/09/01 13:15:12;;;;;;;7.45;3.25;;;;;;;;;;5052959;28;20368;-78
2023/09/01 13:17:38;;;;;;;6.47;3.70;;;;;;;;;;5053977;28;20044;-78
2023/09/01 13:20:06;;;;;;;9.73;4.53;;;;;;;;;;5055003;28;20100;-78
2023/09/01 13:22:33;;;;;;;12.60;4.63;;;;;;;;;;5055034;28;20029;-78
2023/09/01 13:24:59;;;;;;;8.48;3.80;;;;;;;;;;5055080;28;20025;-78
2023/09/01 13:27:25;;;;;;;6.85;3.30;;;;;;;;;;5073411;28;20403;-78
2023/09/01 13:29:52;;;;;;;5.68;3.40;;;;;;;;;;5074722;28;20047;-78
2023/09/01 13:32:18;;;;;;;8.48;3.90;;;;;;;;;;5075127;28;20029;-78
2023/09/01 13:34:44;;;;;;;7.85;3.47;;;;;;;;;;5074897;28;20021;-78
2023/09/01 13:37:13;;;;;;;7.72;3.53;;;;;;;;;;5074596;28;20023;-78
2023/09/01 13:39:39;;;;;;;6.75;3.85;;;;;;;;;;5041330;28;20021;-78
2023/09/01 13:42:06;;;;;;;7.15;3.97;;;;;;;;;;5074418;28;20087;-78
2023/09/01 13:44:32;;;;;;;7.85;3.85;;;;;;;;;;5073909;28;20047;-78
2023/09/01 13:46:58;;;;;;;6.43;3.90;;;;;;;;;;5074199;28;20020;-78
2023/09/01 13:49:25;;;;;;;6.57;3.50;;;;;;;;;;5074904;28;20040;-79
2023/09/01 13:51:51;;;;;;;5.85;2.58;;;;;;;;;;5075350;28;20118;-78
2023/09/01 13:54:17;;;;;;;7.07;3.53;;;;;;;;;;5061101;28;20020;-78
2023/09/01 13:56:43;;;;;;;5.13;3.30;;;;;;;;;;5062222;28;20479;-78
2023/09/01 13:59:12;;;;;;;7.57;3.38;;;;;;;;;;5061157;28;20036;-78
2023/09/01 14:01:39;;;;;;;7.60;4.00;;;;;;;;;;5055775;28;20029;-78
2023/09/01 14:04:05;;;;;;;8.30;3.80;;;;;;;;;;5048786;28;20037;-78
2023/09/01 14:06:33;;;;;;;4.68;3.22;;;;;;;;;;5054808;28;20051;-78
2023/09/01 14:09:00;;;;;;;7.53;3.65;;;;;;;;;;5068414;28;20107;-78
2023/09/01 14:11:26;;;;;;;8.13;3.72;;;;;;;;;;5074449;28;20020;-78
2023/09/01 14:13:53;;;;;;;7.20;3.10;;;;;;;;;;5073220;28;20356;-78
2023/09/01 14:16:19;;;;;;;7.07;3.40;;;;;;;;;;5053946;28;20021;-78
2023/09/01 14:18:45;;;;;;;5.18;3.40;;;;;;;;;;5048023;28;20069;-78
2023/09/01 14:21:11;;;;;;;7.90;3.70;;;;;;;;;;5014390;28;20053;-78
2023/09/01 14:23:37;;;;;;;6.70;4.00;;;;;;;;;;5049542;28;20029;-78
2023/09/01 14:26:03;;;;;;;8.43;3.70;;;;;;;;;;5053887;28;20031;-78
2023/09/01 14:28:29;;;;;;;9.65;3.78;;;;;;;;;;5054641;28;20384;-78
2023/09/01 14:30:55;;;;;;;7.75;4.07;;;;;;;;;;5054814;28;20029;-78
2023/09/01 14:33:21;;;;;;;8.00;4.10;;;;;;;;;;5054854;28;20261;-78
2023/09/01 14:35:51;;;;;;;6.05;4.00;;;;;;;;;;5055327;28;20155;-78
2023/09/01 14:38:17;;;;;;;;;;;;;;;;;;5055151;28;20033;-78
2023/09/01 14:40:44;;;;;;;6.47;3.70;;;;;;;;;;5047134;28;19912;-78
2023/09/01 14:43:10;;;;;;;9.82;3.85;;;;;;;;;;5035196;28;20037;-78